Etusivu
METAR-TAF:

METAR-TAF

Lentoasemat :

Porter County Municipal Airport

Valparaiso, Indiana, Yhdysvallat

Leveyspiiri: 41-27-11N, Pituuspiiri: 086-59-53W, korkeus merenpinnasta: 234 m

Tämänhetkinen sää

Tämä raportti tehtiin 18 minuuttia sitten, kello 11.06 UTC
Tuuli 4 kn eri suunnista
Lämpötila 18°C
Kosteus 88%
Ilmanpaine 1001 hPa
Näkyvyys: 1.6 km
Pilvistä 500 ft:n korkeudessa
kovaa sadetta, utua

METAR: KVPZ 201106Z AUTO VRB04KT 1SM +RA BR OVC005 18/16 A2955 RMK AO2 P0011 T01780161

Aika: 06:24 (11:24 UTC)


TAF: puuttuu

Säähavainnot ja -ennusteet yli 4000 lentoasemalta (METAR- ja TAF-raportit).

Käytössä olevat sääasemat on merkitty karttaan keltaisilla ja punaisilla pisteillä.

Aseta hiiri pisteen päälle nähdäksesi sääaseman nimen.

Klikkaa sitten nähdäksesi säähavainnot ja -ennusteet.

Kartan vaihtaminen: klikkaa mustalla rastilla varustettuja vihreitä pisteitä, niin voit zoomata sisään; viivalla varustettua vihreää pistettä, niin voit zoomata ulos tai vihreitä nuolia, niin pääset viereisille kartoille.


METAR-TAF: